Schneifelwetter: Wetterstation Hallschlag, 537 m . NN
Wetterdaten: Sonntag, 16.09.2012
Datum Zeit Temp. A. Feuchte A. Luftdruck Regen Wind Richtung Richtung Sonnenschein T Regen Taupunkt Windchill
16.09.2012 00:14 4,3 C 92 % 1017 hPa 0,0 l/m 0,0 km/h (0 Bft) W-SW 250 0 min 0 min 3,1 C 4,3 C
16.09.2012 00:29 4,3 C 92 % 1017 hPa 0,0 l/m 0,0 km/h (0 Bft) W-SW 250 0 min 0 min 3,1 C 4,3 C
16.09.2012 00:44 4,3 C 92 % 1017 hPa 0,0 l/m 0,0 km/h (0 Bft) W-SW 250 0 min 0 min 3,1 C 4,3 C
16.09.2012 00:59 4,3 C 92 % 1017 hPa 0,0 l/m 0,0 km/h (0 Bft) W-SW 250 0 min 0 min 3,1 C 4,3 C
16.09.2012 01:14 4,3 C 92 % 1017 hPa 0,0 l/m 0,0 km/h (0 Bft) W-SW 250 0 min 0 min 3,1 C 4,3 C
16.09.2012 01:29 3,9 C 92 % 1017 hPa 0,0 l/m 0,0 km/h (0 Bft) W-SW 250 0 min 0 min 2,7 C 3,9 C
16.09.2012 01:44 3,7 C 92 % 1017 hPa 0,0 l/m 0,0 km/h (0 Bft) W-SW 250 0 min 0 min 2,5 C 3,7 C
16.09.2012 01:59 3,5 C 92 % 1017 hPa 0,0 l/m 0,0 km/h (0 Bft) W-SW 250 0 min 0 min 2,3 C 3,5 C
16.09.2012 02:14 3,2 C 92 % 1017 hPa 0,0 l/m 0,0 km/h (0 Bft) W-SW 250 0 min 0 min 2,0 C 3,2 C
16.09.2012 02:29 3,0 C 93 % 1017 hPa 0,0 l/m 0,0 km/h (0 Bft) W-SW 250 0 min 0 min 2,0 C 3,0 C
16.09.2012 02:44 2,9 C 93 % 1017 hPa 0,0 l/m 0,0 km/h (0 Bft) W-SW 250 0 min 0 min 1,9 C 2,9 C
16.09.2012 02:59 2,7 C 93 % 1017 hPa 0,0 l/m 0,0 km/h (0 Bft) W-SW 250 0 min 0 min 1,7 C 2,7 C
16.09.2012 03:14 2,5 C 93 % 1016 hPa 0,0 l/m 0,0 km/h (0 Bft) W-SW 250 0 min 0 min 1,5 C 2,5 C
16.09.2012 03:29 2,3 C 93 % 1016 hPa 0,0 l/m 0,0 km/h (0 Bft) W-SW 250 0 min 0 min 1,3 C 2,3 C
16.09.2012 03:44 2,2 C 93 % 1016 hPa 0,0 l/m 0,0 km/h (0 Bft) W-SW 250 0 min 0 min 1,2 C 2,2 C
16.09.2012 03:59 2,1 C 93 % 1016 hPa 0,0 l/m 0,0 km/h (0 Bft) W-SW 250 0 min 0 min 1,1 C 2,1 C
16.09.2012 04:14 2,1 C 93 % 1016 hPa 0,0 l/m 0,0 km/h (0 Bft) W-SW 250 0 min 0 min 1,1 C 2,1 C
16.09.2012 04:29 1,9 C 93 % 1016 hPa 0,0 l/m 0,0 km/h (0 Bft) W-SW 250 0 min 0 min 0,9 C 1,9 C
16.09.2012 04:44 1,8 C 93 % 1016 hPa 0,0 l/m 0,0 km/h (0 Bft) W-SW 250 0 min 0 min 0,8 C 1,8 C
16.09.2012 04:59 1,7 C 94 % 1016 hPa 0,0 l/m 0,0 km/h (0 Bft) W-SW 250 0 min 0 min 0,8 C 1,7 C
16.09.2012 05:14 1,7 C 94 % 1016 hPa 0,0 l/m 0,0 km/h (0 Bft) W-SW 250 0 min 0 min 0,8 C 1,7 C
16.09.2012 05:29 1,5 C 94 % 1016 hPa 0,0 l/m 0,0 km/h (0 Bft) W-SW 250 0 min 0 min 0,6 C 1,5 C
16.09.2012 05:44 1,6 C 94 % 1016 hPa 0,0 l/m 0,0 km/h (0 Bft) W-SW 250 0 min 0 min 0,7 C 1,6 C
16.09.2012 05:59 1,5 C 94 % 1016 hPa 0,0 l/m 0,0 km/h (0 Bft) W-SW 250 0 min 0 min 0,6 C 1,5 C
16.09.2012 06:15 1,4 C 94 % 1016 hPa 0,0 l/m 0,0 km/h (0 Bft) W-SW 250 0 min 0 min 0,5 C 1,4 C
16.09.2012 06:30 1,5 C 95 % 1016 hPa 0,0 l/m 0,0 km/h (0 Bft) W-SW 250 0 min 0 min 0,8 C 1,5 C
16.09.2012 06:45 1,6 C 94 % 1016 hPa 0,0 l/m 0,0 km/h (0 Bft) W-SW 250 0 min 0 min 0,7 C 1,6 C
16.09.2012 07:00 1,6 C 94 % 1016 hPa 0,0 l/m 0,0 km/h (0 Bft) W-SW 250 0 min 0 min 0,7 C 1,6 C
16.09.2012 07:15 1,4 C 94 % 1016 hPa 0,0 l/m 0,0 km/h (0 Bft) W-SW 250 0 min 0 min 0,5 C 1,4 C
16.09.2012 07:30 1,6 C 95 % 1016 hPa 0,0 l/m 0,0 km/h (0 Bft) W-SW 250 0 min 0 min 0,9 C 1,6 C
16.09.2012 07:45 1,9 C 95 % 1016 hPa 0,0 l/m 0,0 km/h (0 Bft) W-SW 250 0 min 0 min 1,2 C 1,9 C
16.09.2012 08:00 2,2 C 95 % 1016 hPa 0,0 l/m 0,0 km/h (0 Bft) W-SW 250 0 min 0 min 1,5 C 2,2 C
16.09.2012 08:14 2,7 C 95 % 1016 hPa 0,0 l/m 0,0 km/h (0 Bft) W-SW 250 0 min 0 min 2,0 C 2,7 C
16.09.2012 08:29 3,2 C 95 % 1016 hPa 0,0 l/m 0,0 km/h (0 Bft) W-SW 250 0 min 0 min 2,5 C 3,2 C
16.09.2012 08:44 3,8 C 96 % 1016 hPa 0,0 l/m 0,0 km/h (0 Bft) W-SW 250 0 min 0 min 3,2 C 3,8 C
16.09.2012 08:59 4,5 C 96 % 1016 hPa 0,0 l/m 0,0 km/h (0 Bft) W-SW 250 0 min 0 min 3,9 C 4,5 C
16.09.2012 09:14 5,4 C 96 % 1016 hPa 0,0 l/m 0,0 km/h (0 Bft) W-SW 250 0 min 0 min 4,8 C 5,4 C
16.09.2012 09:29 6,2 C 96 % 1016 hPa 0,0 l/m 0,0 km/h (0 Bft) W-SW 250 0 min 0 min 5,6 C 6,2 C
16.09.2012 09:44 7,5 C 97 % 1016 hPa 0,0 l/m 0,0 km/h (0 Bft) W-SW 250 0 min 0 min 7,1 C 7,5 C
16.09.2012 09:59 9,0 C 96 % 1016 hPa 0,0 l/m 0,0 km/h (0 Bft) W-SW 250 0 min 0 min 8,4 C 9,0 C
16.09.2012 10:14 10,8 C 96 % 1016 hPa 0,0 l/m 0,0 km/h (0 Bft) W-SW 250 0 min 0 min 10,2 C 10,8 C
16.09.2012 10:29 12,4 C 95 % 1016 hPa 0,0 l/m 11,8 km/h (2 Bft) W-SW 250 0 min 0 min 11,6 C 9,4 C
16.09.2012 10:44 13,5 C 89 % 1016 hPa 0,0 l/m 22,5 km/h (4 Bft) W-SW22.5 250 0 min 0 min 11,7 C 7,2 C
16.09.2012 10:59 14,0 C 86 % 1016 hPa 0,0 l/m 21,2 km/h (4 Bft) W-SW45 250 0 min 0 min 11,7 C 8,1 C
16.09.2012 11:14 14,6 C 82 % 1016 hPa 0,0 l/m 20,1 km/h (4 Bft) W-SW22.5 255 0 min 0 min 11,6 C 9,2 C
16.09.2012 11:29 15,0 C 79 % 1016 hPa 0,0 l/m 26,0 km/h (4 Bft) W-SW45 250 0 min 0 min 11,4 C 8,4 C
16.09.2012 11:44 15,4 C 78 % 1016 hPa 0,0 l/m 25,6 km/h (4 Bft) W22.5 265 0 min 0 min 11,6 C 9,0 C
16.09.2012 11:59 15,7 C 75 % 1016 hPa 0,0 l/m 24,4 km/h (4 Bft) W-SW45 250 0 min 0 min 11,3 C 9,7 C
16.09.2012 12:14 15,9 C 74 % 1015 hPa 0,0 l/m 23,4 km/h (4 Bft) W-SW45 250 0 min 0 min 11,3 C 10,1 C
16.09.2012 12:30 16,1 C 74 % 1015 hPa 0,0 l/m 17,6 km/h (3 Bft) SW67.5 235 0 min 0 min 11,5 C 11,8 C
16.09.2012 12:44 16,4 C 73 % 1015 hPa 0,0 l/m 22,5 km/h (4 Bft) W45 260 0 min 0 min 11,5 C 11,0 C
16.09.2012 12:59 16,5 C 73 % 1015 hPa 0,0 l/m 18,1 km/h (3 Bft) W22.5 260 0 min 0 min 11,6 C 12,1 C
16.09.2012 13:14 16,8 C 72 % 1015 hPa 0,0 l/m 20,9 km/h (4 Bft) W-SW45 240 0 min 0 min 11,7 C 11,9 C
16.09.2012 13:29 16,9 C 71 % 1015 hPa 0,0 l/m 14,1 km/h (3 Bft) S-SO22.5 165 0 min 0 min 11,6 C 13,8 C
16.09.2012 13:44 17,1 C 71 % 1015 hPa 0,0 l/m 21,0 km/h (4 Bft) W-SW22.5 250 0 min 0 min 11,8 C 12,2 C
16.09.2012 14:00 17,3 C 70 % 1015 hPa 0,0 l/m 17,8 km/h (3 Bft) SW22.5 235 0 min 0 min 11,8 C 13,2 C
16.09.2012 14:14 17,6 C 70 % 1014 hPa 0,0 l/m 18,3 km/h (3 Bft) W22.5 260 0 min 0 min 12,1 C 13,5 C
16.09.2012 14:29 17,6 C 68 % 1014 hPa 0,0 l/m 12,1 km/h (2 Bft) W-SW22.5 245 0 min 0 min 11,6 C 15,2 C
16.09.2012 14:44 17,8 C 68 % 1014 hPa 0,0 l/m 8,5 km/h (2 Bft) S-SW67.5 210 0 min 0 min 11,8 C 16,8 C
16.09.2012 14:59 18,0 C 67 % 1014 hPa 0,0 l/m 14,8 km/h (3 Bft) SW67.5 225 0 min 0 min 11,8 C 14,9 C
16.09.2012 15:14 17,9 C 67 % 1014 hPa 0,0 l/m 13,6 km/h (3 Bft) W-SW45 250 0 min 0 min 11,7 C 15,1 C
16.09.2012 15:30 18,1 C 66 % 1014 hPa 0,0 l/m 13,6 km/h (3 Bft) S22.5 170 0 min 0 min 11,6 C 15,3 C
16.09.2012 15:44 18,1 C 65 % 1014 hPa 0,0 l/m 21,0 km/h (4 Bft) S-SW67.5 200 0 min 0 min 11,4 C 13,5 C
16.09.2012 15:59 18,2 C 65 % 1013 hPa 0,0 l/m 13,2 km/h (3 Bft) S45 175 0 min 0 min 11,5 C 15,6 C
16.09.2012 16:14 18,3 C 65 % 1013 hPa 0,0 l/m 11,7 km/h (2 Bft) S-SW22.5 200 0 min 0 min 11,6 C 16,2 C
16.09.2012 16:29 18,4 C 65 % 1013 hPa 0,0 l/m 15,5 km/h (3 Bft) W-SW67.5 240 0 min 0 min 11,7 C 15,2 C
16.09.2012 16:44 18,6 C 65 % 1013 hPa 0,0 l/m 14,4 km/h (3 Bft) S-SW22.5 210 0 min 0 min 11,9 C 15,7 C
16.09.2012 17:00 18,4 C 65 % 1013 hPa 0,0 l/m 13,8 km/h (3 Bft) S45 185 0 min 0 min 11,7 C 15,6 C
16.09.2012 17:14 18,2 C 65 % 1013 hPa 0,0 l/m 14,1 km/h (3 Bft) SW45 225 0 min 0 min 11,5 C 15,3 C
16.09.2012 17:29 18,1 C 65 % 1013 hPa 0,0 l/m 18,3 km/h (3 Bft) W-SW22.5 250 0 min 0 min 11,4 C 14,1 C
16.09.2012 17:44 17,8 C 66 % 1013 hPa 0,0 l/m 18,3 km/h (3 Bft) W-SW22.5 255 0 min 0 min 11,4 C 13,7 C
16.09.2012 17:59 17,7 C 67 % 1013 hPa 0,0 l/m 12,8 km/h (3 Bft) S-SW45 210 0 min 0 min 11,5 C 15,1 C
16.09.2012 18:14 17,5 C 67 % 1013 hPa 0,0 l/m 11,3 km/h (2 Bft) S-SW45 205 0 min 0 min 11,3 C 15,4 C
16.09.2012 18:30 17,2 C 68 % 1013 hPa 0,0 l/m 10,5 km/h (2 Bft) SW45 230 0 min 0 min 11,2 C 15,4 C
16.09.2012 18:44 16,6 C 69 % 1012 hPa 0,0 l/m 7,8 km/h (2 Bft) S-SO22.5 165 0 min 0 min 10,9 C 15,9 C
16.09.2012 18:59 15,9 C 70 % 1012 hPa 0,0 l/m 4,6 km/h (1 Bft) S-SW 195 0 min 0 min 10,4 C 15,9 C
16.09.2012 19:14 15,0 C 73 % 1012 hPa 0,0 l/m 7,2 km/h (2 Bft) S-SW 195 0 min 0 min 10,2 C 14,5 C
16.09.2012 19:29 14,4 C 73 % 1012 hPa 0,0 l/m 6,8 km/h (2 Bft) S-SW 195 0 min 0 min 9,6 C 14,2 C
16.09.2012 19:44 13,5 C 74 % 1012 hPa 0,0 l/m 0,0 km/h (0 Bft) S-SW 195 0 min 0 min 9,0 C 13,5 C
16.09.2012 20:00 12,5 C 76 % 1012 hPa 0,0 l/m 0,0 km/h (0 Bft) S-SW 195 0 min 0 min 8,4 C 12,5 C
16.09.2012 20:14 11,8 C 78 % 1012 hPa 0,0 l/m 0,0 km/h (0 Bft) S-SW 195 0 min 0 min 8,1 C 11,8 C
16.09.2012 20:29 11,2 C 80 % 1012 hPa 0,0 l/m 0,0 km/h (0 Bft) S-SW 195 0 min 0 min 7,9 C 11,2 C
16.09.2012 20:44 10,7 C 81 % 1012 hPa 0,0 l/m 0,0 km/h (0 Bft) S-SW 195 0 min 0 min 7,6 C 10,7 C
16.09.2012 20:59 10,3 C 83 % 1012 hPa 0,0 l/m 0,0 km/h (0 Bft) S-SW 195 0 min 0 min 7,5 C 10,3 C
16.09.2012 21:14 9,9 C 84 % 1012 hPa 0,0 l/m 0,0 km/h (0 Bft) S-SW 195 0 min 0 min 7,3 C 9,9 C
16.09.2012 21:30 9,6 C 84 % 1013 hPa 0,0 l/m 0,0 km/h (0 Bft) S-SW 195 0 min 0 min 7,0 C 9,6 C
16.09.2012 21:44 9,2 C 85 % 1013 hPa 0,0 l/m 0,0 km/h (0 Bft) S-SW 195 0 min 0 min 6,8 C 9,2 C
16.09.2012 21:59 8,7 C 85 % 1013 hPa 0,0 l/m 0,0 km/h (0 Bft) S-SW 195 0 min 0 min 6,3 C 8,7 C
16.09.2012 22:14 8,3 C 86 % 1013 hPa 0,0 l/m 0,0 km/h (0 Bft) S-SW 195 0 min 0 min 6,1 C 8,3 C
16.09.2012 22:29 8,0 C 87 % 1012 hPa 0,0 l/m 0,0 km/h (0 Bft) S-SW 195 0 min 0 min 6,0 C 8,0 C
16.09.2012 22:44 7,8 C 88 % 1012 hPa 0,0 l/m 0,0 km/h (0 Bft) S-SW 195 0 min 0 min 5,9 C 7,8 C
16.09.2012 22:59 7,9 C 88 % 1012 hPa 0,0 l/m 0,0 km/h (0 Bft) S-SW 195 0 min 0 min 6,0 C 7,9 C
16.09.2012 23:14 7,6 C 88 % 1012 hPa 0,0 l/m 0,0 km/h (0 Bft) S-SW 195 0 min 0 min 5,7 C 7,6 C
16.09.2012 23:29 7,2 C 89 % 1012 hPa 0,0 l/m 0,0 km/h (0 Bft) S-SW 195 0 min 0 min 5,5 C 7,2 C
16.09.2012 23:44 7,0 C 89 % 1012 hPa 0,0 l/m 0,0 km/h (0 Bft) S-SW 195 0 min 0 min 5,3 C 7,0 C
16.09.2012 23:59 6,8 C 89 % 1012 hPa 0,0 l/m 0,0 km/h (0 Bft) S-SW 195 0 min 0 min 5,1 C 6,8 C
_ Min-Zeit 06:15 15:44 18:44 - 00:14 - - - - 06:15 06:15
Minimum _ 1,4 C 65 % 1012 hPa - 0,0 km/h (0 Bft) - - - - 0,5 C 1,4 C
_ Max-Zeit 16:44 09:44 00:14 00:14 11:29 - - 00:14 00:14 14:14 14:44
Maximum _ 18,6 C 97 % 1017 hPa 0,0 l/m 26,0 km/h
W-SW (4 Bft)
- - 0 min 0 min 12,1 C 16,8 C
Durchschnitt _ 9,6 C 83 % 1015 hPa #0,0 l/m 6,1 km/h (2 Bft) W-SW - #0 min. #0 min. 6,7 C 8,2 C